Time;durP1;ratioP1;P1;durP2;ratioP2;P2;SDS_P1;SDS_P2;PMS_P1;PMS_P2;Temp;Humidity;BMP_temperature;BMP_pressure;BME280_temperature;BME280_humidity;BME280_pressure;Samples;Min_cycle;Max_cycle;Signal;HPM_P1;HPM_P2
2022/08/11 00:00:08;;;;;;;11.15;6.47;;;17.30;99.90;;;;;;5077061;28;20134;-82
2022/08/11 00:02:42;;;;;;;7.60;6.35;;;17.10;99.90;;;;;;5076804;28;20046;-86
2022/08/11 00:05:18;;;;;;;8.63;7.13;;;16.90;99.90;;;;;;5093457;28;20051;-86
2022/08/11 00:07:47;;;;;;;10.27;6.88;;;16.90;99.90;;;;;;5077227;28;20036;-86
2022/08/11 00:10:16;;;;;;;8.25;7.45;;;17.00;99.90;;;;;;5093701;28;20518;-87
2022/08/11 00:12:43;;;;;;;8.30;7.10;;;;;;;;;;5094199;28;20122;-87
2022/08/11 00:15:11;;;;;;;9.52;6.82;;;17.00;99.90;;;;;;5076891;28;20039;-86
2022/08/11 00:17:37;;;;;;;9.18;7.30;;;;;;;;;;5093716;28;20047;-86
2022/08/11 00:20:13;;;;;;;7.78;6.55;;;;;;;;;;5076992;28;20043;-85
2022/08/11 00:22:41;;;;;;;9.15;6.57;;;;;;;;;;5093820;28;20043;-86
2022/08/11 00:25:19;;;;;;;9.20;6.25;;;16.80;99.90;;;;;;5077071;28;20035;-84
2022/08/11 00:27:46;;;;;;;9.05;7.15;;;16.70;99.90;;;;;;5093457;28;20126;-85
2022/08/11 00:30:13;;;;;;;15.00;7.22;;;16.80;99.90;;;;;;5094069;28;20039;-85
2022/08/11 00:32:40;;;;;;;9.55;6.65;;;;;;;;;;5093648;28;20055;-85
2022/08/11 00:35:10;;;;;;;9.02;6.88;;;17.00;99.90;;;;;;5093398;28;20048;-86
2022/08/11 00:37:38;;;;;;;6.65;5.95;;;17.00;99.90;;;;;;5076796;28;20039;-82
2022/08/11 00:40:09;;;;;;;8.80;6.22;;;17.00;99.90;;;;;;5076773;28;20050;-84
2022/08/11 00:43:06;;;;;;;9.05;6.18;;;16.80;99.90;;;;;;5076416;28;20047;-83
2022/08/11 00:45:38;;;;;;;9.90;6.32;;;17.10;99.90;;;;;;5093423;28;20086;-82
2022/08/11 00:48:13;;;;;;;6.28;5.38;;;17.00;99.90;;;;;;5076570;28;20075;-82
2022/08/11 00:51:16;;;;;;;6.32;5.53;;;16.80;99.90;;;;;;5076825;28;20043;-81
2022/08/11 00:54:19;;;;;;;9.73;6.40;;;16.80;99.90;;;;;;5077372;28;20062;-81
2022/08/11 00:57:17;;;;;;;6.97;6.25;;;16.60;99.90;;;;;;5080243;28;20173;-81
2022/08/11 00:59:43;;;;;;;9.88;6.68;;;;;;;;;;5097432;28;20044;-82
2022/08/11 01:02:16;;;;;;;12.80;6.80;;;16.80;99.90;;;;;;5080540;28;20042;-82
2022/08/11 01:05:01;;;;;;;7.38;6.68;;;16.90;99.90;;;;;;5097305;28;20092;-83
2022/08/11 01:07:58;;;;;;;7.88;6.45;;;17.10;99.90;;;;;;5097093;28;20047;-82
2022/08/11 01:10:30;;;;;;;7.07;6.38;;;17.00;99.90;;;;;;5096997;28;20043;-82
2022/08/11 01:13:14;;;;;;;5.55;5.05;;;16.60;99.90;;;;;;5096718;28;20500;-83
2022/08/11 01:16:01;;;;;;;7.90;5.68;;;16.90;99.90;;;;;;5080103;28;20121;-84
2022/08/11 01:19:05;;;;;;;7.90;5.07;;;16.80;99.90;;;;;;5080248;28;20036;-83
2022/08/11 01:21:45;;;;;;;8.73;5.80;;;16.70;99.90;;;;;;5079676;28;20054;-82
2022/08/11 01:24:38;;;;;;;6.03;4.90;;;16.70;99.90;;;;;;5097199;28;20043;-82
2022/08/11 01:27:35;;;;;;;8.00;4.60;;;16.70;99.90;;;;;;5079803;28;20047;-86
2022/08/11 01:30:02;;;;;;;4.57;4.18;;;;;;;;;;5096346;28;20040;-86
2022/08/11 01:33:05;;;;;;;5.78;4.75;;;16.50;99.90;;;;;;5079705;28;20043;-86
2022/08/11 01:35:45;;;;;;;7.07;4.72;;;16.50;99.90;;;;;;5079494;28;20047;-86
2022/08/11 01:38:41;;;;;;;4.35;3.78;;;16.40;99.90;;;;;;5096905;28;20484;-86
2022/08/11 01:41:07;;;;;;;4.30;3.70;;;;;;;;;;5096466;28;20081;-86
2022/08/11 01:47:49;;;;;;;4.20;3.78;;;16.20;99.90;;;;;;5096288;28;20090;-84
2022/08/11 01:50:13;;;;;;;3.80;3.45;;;16.30;99.90;;;;;;5096049;28;20051;-87
2022/08/11 01:52:52;;;;;;;3.65;3.30;;;16.20;99.90;;;;;;5079177;28;20104;-86
2022/08/11 01:55:26;;;;;;;4.15;3.28;;;15.90;99.90;;;;;;5079306;28;20372;-87
2022/08/11 01:58:14;;;;;;;12.27;4.25;;;16.10;99.90;;;;;;5079309;28;20047;-86
2022/08/11 02:01:15;;;;;;;4.38;3.30;;;15.90;99.90;;;;;;5078861;28;20921;-86
2022/08/11 02:04:02;;;;;;;5.40;3.72;;;15.70;99.90;;;;;;5014925;28;20060;-87
2022/08/11 02:06:54;;;;;;;4.00;3.17;;;15.90;99.90;;;;;;5030709;28;20053;-86
2022/08/11 02:09:41;;;;;;;3.92;3.45;;;15.90;99.90;;;;;;5015165;28;20041;-88
2022/08/11 02:12:36;;;;;;;3.70;3.40;;;15.60;99.90;;;;;;5014713;28;20052;-86
2022/08/11 02:15:14;;;;;;;3.10;2.67;;;15.60;99.90;;;;;;5014219;28;20152;-88
2022/08/11 02:17:40;;;;;;;4.38;3.15;;;;;;;;;;5014934;28;20449;-85
2022/08/11 02:25:57;;;;;;;3.22;2.92;;;;;;;;;;5015034;28;20053;-86
2022/08/11 02:28:45;;;;;;;3.50;3.20;;;15.40;99.90;;;;;;5014539;28;20124;-85
2022/08/11 02:34:23;;;;;;;2.88;2.67;;;15.40;99.90;;;;;;5014350;28;20084;-84
2022/08/11 02:37:14;;;;;;;2.67;2.47;;;15.40;99.90;;;;;;5014379;28;20046;-85
2022/08/11 02:39:53;;;;;;;3.97;2.83;;;15.50;99.90;;;;;;5056548;28;20514;-84
2022/08/11 02:42:43;;;;;;;3.38;3.08;;;15.30;99.90;;;;;;5078414;28;20047;-84
2022/08/11 02:45:30;;;;;;;2.72;2.53;;;15.40;99.90;;;;;;5095220;28;20050;-82
2022/08/11 02:50:59;;;;;;;3.25;2.90;;;15.10;99.90;;;;;;5095084;28;20047;-82
2022/08/11 02:53:53;;;;;;;2.70;2.25;;;15.00;99.90;;;;;;5094934;28;20043;-83
2022/08/11 02:56:25;;;;;;;3.95;3.28;;;;;;;;;;5095109;28;20066;-86
2022/08/11 03:02:15;;;;;;;4.95;3.90;;;14.90;99.90;;;;;;5094580;28;20054;-85
2022/08/11 03:05:09;;;;;;;5.95;3.65;;;14.70;99.90;;;;;;5077685;28;20099;-89
2022/08/11 03:07:56;;;;;;;4.72;4.15;;;14.80;99.90;;;;;;5078378;28;20083;-89
2022/08/11 03:10:34;;;;;;;5.57;4.10;;;14.70;99.90;;;;;;5077776;28;20062;-87
2022/08/11 03:19:44;;;;;;;10.18;4.63;;;15.00;99.90;;;;;;5094194;28;20083;-85
2022/08/11 03:22:42;;;;;;;5.60;4.53;;;14.90;99.90;;;;;;5077846;28;20039;-84
2022/08/11 03:25:08;;;;;;;4.72;4.28;;;;;;;;;;5077474;28;20058;-87
2022/08/11 03:28:30;;;;;;;6.13;4.10;;;14.80;99.90;;;;;;5077747;28;20048;-84
2022/08/11 03:31:08;;;;;;;4.15;3.75;;;;;;;;;;5013604;28;20061;-87
2022/08/11 03:34:01;;;;;;;5.35;3.40;;;14.70;99.90;;;;;;5013069;28;20173;-82
2022/08/11 03:36:45;;;;;;;7.07;4.47;;;;;;;;;;5013268;28;20049;-83
2022/08/11 03:40:07;;;;;;;7.75;3.70;;;14.70;99.90;;;;;;5013373;28;20041;-85
2022/08/11 03:42:42;;;;;;;4.30;3.60;;;14.80;99.90;;;;;;4955249;28;20050;-84
2022/08/11 03:45:14;;;;;;;3.50;3.20;;;;;;;;;;4955098;28;20439;-83
2022/08/11 03:47:49;;;;;;;3.35;3.05;;;;;;;;;;4954489;28;20058;-82
2022/08/11 03:50:43;;;;;;;3.10;2.70;;;14.70;99.90;;;;;;4970703;28;20050;-83
2022/08/11 03:53:16;;;;;;;;;;;14.70;99.90;;;;;;4954867;28;20587;-86
2022/08/11 03:56:29;;;;;;;4.53;3.28;;;14.70;99.90;;;;;;4954671;28;20036;-85
2022/08/11 03:59:30;;;;;;;4.65;3.97;;;14.80;99.90;;;;;;4954451;28;20078;-85
2022/08/11 04:02:16;;;;;;;4.35;3.83;;;14.60;99.90;;;;;;4954407;28;20054;-86
2022/08/11 04:04:48;;;;;;;4.72;3.08;;;;;;;;;;4954003;28;20050;-85
2022/08/11 04:07:28;;;;;;;4.50;3.88;;;14.70;99.90;;;;;;5016634;28;20057;-85
2022/08/11 04:10:31;;;;;;;3.25;2.55;;;14.80;99.90;;;;;;5013131;28;20467;-86
2022/08/11 04:12:57;;;;;;;1.65;1.55;;;14.60;99.90;;;;;;5024474;28;20389;-85
2022/08/11 04:16:00;;;;;;;3.45;2.25;;;14.70;99.90;;;;;;5076845;28;20047;-87
2022/08/11 04:18:48;;;;;;;2.10;1.88;;;14.60;99.90;;;;;;5093649;28;20043;-85
2022/08/11 04:21:26;;;;;;;1.90;1.77;;;;;;;;;;5093779;28;20116;-88
2022/08/11 04:24:49;;;;;;;1.85;1.75;;;14.50;99.90;;;;;;5093617;28;20047;-86
2022/08/11 04:27:37;;;;;;;4.30;2.55;;;14.40;99.90;;;;;;5012989;28;20550;-87
2022/08/11 04:30:16;;;;;;;3.28;2.97;;;14.50;99.90;;;;;;4938243;29;20141;-88
2022/08/11 04:32:54;;;;;;;3.10;2.80;;;;;;;;;;4939366;29;20055;-87
2022/08/11 04:35:31;;;;;;;2.90;2.45;;;14.40;99.90;;;;;;4938452;29;20067;-86
2022/08/11 04:38:21;;;;;;;3.60;3.30;;;14.40;99.90;;;;;;4938995;29;20608;-85
2022/08/11 04:43:19;;;;;;;5.47;3.63;;;14.50;99.90;;;;;;4954771;28;20051;-84
2022/08/11 04:44:49;;;;;;;4.07;3.10;;;14.40;99.90;;;;;;4893522;29;20052;-86
2022/08/11 05:03:25;;;;;;;5.35;4.63;;;14.80;99.90;;;;;;4895383;29;20119;-84
2022/08/11 05:06:12;;;;;;;7.90;4.53;;;14.80;99.90;;;;;;4918936;29;20063;-82
2022/08/11 05:09:20;;;;;;;7.82;5.93;;;14.90;99.90;;;;;;4996623;28;20065;-82
2022/08/11 05:12:04;;;;;;;5.28;4.35;;;;;;;;;;4919409;29;20111;-83
2022/08/11 05:35:30;;;;;;;7.60;4.00;;;15.30;99.90;;;;;;4899860;29;20106;-82
2022/08/11 05:57:35;;;;;;;9.98;8.05;;;16.10;99.90;;;;;;5035857;28;20062;-82
2022/08/11 06:00:09;;;;;;;14.82;7.82;;;16.00;99.90;;;;;;5113025;28;20082;-84
2022/08/11 06:02:47;;;;;;;12.23;7.93;;;16.00;99.90;;;;;;5112947;28;20047;-82
2022/08/11 06:05:14;;;;;;;10.77;8.45;;;16.20;99.90;;;;;;5112783;28;20495;-84
2022/08/11 06:07:40;;;;;;;11.35;8.48;;;16.40;99.90;;;;;;5095805;28;20086;-83
2022/08/11 06:10:07;;;;;;;20.98;8.73;;;16.40;99.90;;;;;;5112945;28;20119;-82
2022/08/11 06:12:36;;;;;;;14.30;9.30;;;16.50;99.90;;;;;;5112715;28;20036;-82
2022/08/11 06:15:10;;;;;;;14.55;9.60;;;16.70;99.90;;;;;;5095553;28;20506;-82
2022/08/11 06:17:47;;;;;;;12.05;9.98;;;16.70;99.90;;;;;;5112593;28;20539;-82
2022/08/11 06:20:15;;;;;;;17.35;10.57;;;16.80;99.90;;;;;;5112562;28;20377;-85
2022/08/11 06:22:47;;;;;;;15.23;9.75;;;17.00;99.90;;;;;;5095893;28;20109;-85
2022/08/11 06:25:14;;;;;;;12.43;9.93;;;17.10;99.90;;;;;;5115896;27;20070;-85
2022/08/11 06:27:42;;;;;;;12.32;9.85;;;17.10;99.90;;;;;;5099152;27;20043;-85
2022/08/11 06:30:12;;;;;;;12.35;9.68;;;17.40;99.90;;;;;;5098754;27;20092;-85
2022/08/11 06:32:42;;;;;;;13.73;9.18;;;17.50;99.90;;;;;;5099072;27;20058;-85
2022/08/11 06:35:44;;;;;;;12.20;8.60;;;17.20;99.90;;;;;;5115699;27;20058;-87
2022/08/11 06:38:51;;;;;;;11.27;8.20;;;17.70;99.90;;;;;;5115585;27;20086;-84
2022/08/11 06:41:48;;;;;;;11.13;8.52;;;18.10;99.90;;;;;;5033801;28;20072;-85
2022/08/11 06:44:20;;;;;;;12.88;8.02;;;17.90;99.90;;;;;;5017891;28;20121;-86
2022/08/11 06:46:50;;;;;;;19.27;8.95;;;17.90;99.90;;;;;;5034064;28;20064;-85
2022/08/11 06:52:05;;;;;;;13.75;8.15;;;18.20;99.90;;;;;;5052360;28;20450;-84
2022/08/11 06:54:35;;;;;;;11.25;8.70;;;18.40;99.90;;;;;;5018067;28;20123;-82
2022/08/11 07:02:47;;;;;;;16.42;9.25;;;18.50;99.90;;;;;;5049990;28;20072;-82
2022/08/11 07:05:57;;;;;;;25.65;8.60;;;18.70;99.90;;;;;;5050929;28;20041;-81
2022/08/11 07:16:57;;;;;;;11.38;8.02;;;19.20;99.90;;;;;;5053969;27;20131;-82
2022/08/11 07:31:20;;;;;;;10.45;7.07;;;19.50;99.90;;;;;;5114720;27;20108;-83
2022/08/11 07:33:50;;;;;;;7.60;6.80;;;20.00;99.90;;;;;;5098071;27;20039;-82
2022/08/11 07:36:17;;;;;;;9.60;7.43;;;19.90;99.90;;;;;;5114754;27;20078;-82
2022/08/11 07:38:49;;;;;;;9.48;6.93;;;20.10;99.90;;;;;;5114671;27;20047;-83
2022/08/11 07:41:17;;;;;;;15.15;7.28;;;20.30;99.90;;;;;;5114785;27;20043;-82
2022/08/11 07:44:07;;;;;;;10.25;7.43;;;20.30;99.90;;;;;;5112463;27;20100;-82
2022/08/11 07:52:29;;;;;;;9.82;6.65;;;20.90;99.90;;;;;;5093885;28;20052;-82
2022/08/11 07:55:06;;;;;;;10.27;5.88;;;20.70;99.90;;;;;;5094219;28;20050;-83
2022/08/11 08:19:43;;;;;;;6.80;3.78;;;22.60;99.90;;;;;;5093606;28;20052;-83
2022/08/11 08:22:10;;;;;;;4.82;3.50;;;21.90;99.90;;;;;;5076954;28;20117;-83
2022/08/11 08:24:38;;;;;;;6.43;3.85;;;22.30;99.90;;;;;;5093925;28;20036;-84
2022/08/11 08:27:04;;;;;;;3.90;3.50;;;22.20;99.90;;;;;;5094064;28;20082;-83
2022/08/11 08:32:20;;;;;;;9.82;3.15;;;22.70;99.90;;;;;;5093843;28;20051;-84
2022/08/11 08:34:49;;;;;;;6.05;4.03;;;22.40;99.90;;;;;;5094051;28;20063;-86
2022/08/11 08:37:18;;;;;;;5.03;2.42;;;22.70;99.90;;;;;;5093907;28;20128;-83
2022/08/11 08:39:45;;;;;;;5.30;2.90;;;22.80;99.90;;;;;;5093588;28;20040;-83
2022/08/11 08:42:16;;;;;;;6.85;3.40;;;23.70;99.90;;;;;;5077127;28;20047;-84
2022/08/11 08:44:46;;;;;;;5.10;2.55;;;22.80;99.90;;;;;;5093377;28;20092;-83
2022/08/11 08:47:14;;;;;;;3.67;3.00;;;23.10;99.90;;;;;;5093479;28;20048;-83
2022/08/11 08:49:48;;;;;;;2.90;2.70;;;23.10;99.90;;;;;;5093680;28;20035;-83
2022/08/11 08:52:15;;;;;;;;;;;23.30;99.90;;;;;;5073612;28;20064;-83
2022/08/11 08:54:43;;;;;;;4.53;2.45;;;23.30;99.90;;;;;;5090182;28;19941;-81
2022/08/11 08:57:10;;;;;;;2.38;2.20;;;23.30;99.90;;;;;;5090080;28;20516;-80
2022/08/11 08:59:43;;;;;;;6.10;2.50;;;23.60;99.90;;;;;;5090185;28;20429;-80
2022/08/11 09:02:11;;;;;;;5.35;2.28;;;23.40;99.90;;;;;;5056841;28;20523;-83
2022/08/11 09:04:40;;;;;;;3.50;1.63;;;23.90;99.90;;;;;;5073584;28;20429;-80
2022/08/11 09:07:14;;;;;;;3.88;2.03;;;23.80;99.90;;;;;;5073362;28;20493;-80
2022/08/11 09:09:51;;;;;;;7.03;1.98;;;22.80;99.90;;;;;;5089786;28;20093;-81
2022/08/11 09:12:25;;;;;;;6.30;2.80;;;24.00;99.90;;;;;;5090223;28;20051;-80
2022/08/11 09:15:00;;;;;;;;;;;24.30;99.90;;;;;;5091856;28;20417;-80
2022/08/11 09:17:43;;;;;;;9.38;1.75;;;24.40;99.90;;;;;;5111233;28;19926;-81
2022/08/11 09:20:24;;;;;;;4.93;2.05;;;24.30;99.90;;;;;;5093580;28;20058;-82
2022/08/11 09:28:28;;;;;;;3.70;1.85;;;24.70;99.90;;;;;;5093621;28;20055;-81
2022/08/11 09:30:55;;;;;;;8.55;2.50;;;24.60;99.90;;;;;;5059327;28;20663;-81
2022/08/11 09:33:23;;;;;;;3.20;1.92;;;24.90;99.90;;;;;;5093441;28;20051;-81
2022/08/11 09:35:51;;;;;;;4.93;1.80;;;24.90;99.90;;;;;;5059374;28;20507;-80
2022/08/11 09:41:06;;;;;;;1.92;1.73;;;25.00;99.90;;;;;;5093809;28;20466;-81
2022/08/11 09:46:26;;;;;;;5.38;2.30;;;25.20;99.90;;;;;;5093050;28;20048;-80
2022/08/11 09:48:53;;;;;;;2.35;1.63;;;25.20;99.90;;;;;;5093379;28;20093;-80
2022/08/11 09:51:21;;;;;;;2.15;1.75;;;25.50;99.90;;;;;;5093200;28;20047;-80
2022/08/11 09:53:50;;;;;;;7.40;1.60;;;25.40;99.90;;;;;;5059304;28;20401;-80
2022/08/11 09:59:06;;;;;;;2.40;1.73;;;25.60;99.90;;;;;;5092861;28;20090;-80
2022/08/11 10:01:41;;;;;;;4.60;1.77;;;25.80;99.90;;;;;;5076106;28;20480;-79
2022/08/11 10:04:15;;;;;;;6.07;1.90;;;27.10;99.90;;;;;;5059062;28;20040;-80
2022/08/11 10:07:02;;;;;;;2.78;1.83;;;25.90;99.90;;;;;;5092568;28;20050;-80
2022/08/11 10:09:42;;;;;;;4.38;1.65;;;26.10;99.90;;;;;;5075885;28;20047;-80
2022/08/11 10:12:13;;;;;;;3.35;1.70;;;26.30;99.90;;;;;;5093609;28;20102;-84
2022/08/11 10:17:31;;;;;;;2.58;1.90;;;26.00;99.90;;;;;;5092805;28;20051;-83
2022/08/11 10:20:02;;;;;;;3.33;2.13;;;26.30;99.90;;;;;;5093418;28;20043;-87
2022/08/11 10:28:34;;;;;;;4.13;2.00;;;26.70;99.90;;;;;;5048405;28;20143;-81
2022/08/11 10:34:02;;;;;;;10.07;2.42;;;26.80;99.90;;;;;;5047935;28;20525;-83
2022/08/11 10:36:41;;;;;;;13.77;2.05;;;26.90;99.90;;;;;;5048542;28;20054;-81
2022/08/11 10:39:10;;;;;;;4.60;1.85;;;26.80;99.90;;;;;;5014974;28;20081;-86
2022/08/11 10:44:23;;;;;;;3.95;1.98;;;27.30;99.90;;;;;;5014377;28;20085;-80
2022/08/11 10:49:35;;;;;;;6.40;2.00;;;27.60;99.90;;;;;;5013897;28;20136;-79
2022/08/11 11:00:18;;;;;;;7.50;2.05;;;27.50;99.90;;;;;;5013993;28;20092;-78
2022/08/11 11:02:47;;;;;;;3.30;1.77;;;27.70;99.90;;;;;;5049849;28;20056;-79
2022/08/11 11:05:30;;;;;;;2.83;1.70;;;27.80;99.90;;;;;;5074609;28;20206;-79
2022/08/11 11:08:51;;;;;;;2.15;1.50;;;27.80;99.90;;;;;;5074690;28;20052;-79
2022/08/11 11:10:51;;;;;;;2.83;1.65;;;28.10;99.90;;;;;;5074702;28;20064;-84
2022/08/11 11:18:49;;;;;;;1.98;1.30;;;28.20;99.90;;;;;;5074654;28;20131;-83
2022/08/11 11:21:21;;;;;;;7.95;1.95;;;27.80;99.90;;;;;;5057762;28;20058;-84
2022/08/11 11:23:58;;;;;;;1.42;1.33;;;28.40;99.90;;;;;;5058487;28;20068;-83
2022/08/11 11:27:04;;;;;;;8.15;1.30;;;28.30;99.90;;;;;;5057915;28;20598;-83
2022/08/11 11:29:53;;;;;;;3.85;1.75;;;28.50;99.90;;;;;;5057880;28;20044;-83
2022/08/11 11:32:47;;;;;;;1.65;1.52;;;28.60;99.90;;;;;;5074501;28;20059;-83
2022/08/11 11:35:28;;;;;;;;;;;28.60;99.90;;;;;;5057400;28;20044;-83
2022/08/11 11:37:55;;;;;;;3.83;1.50;;;28.60;99.90;;;;;;5057259;28;19931;-81
2022/08/11 11:40:22;;;;;;;2.65;1.73;;;28.70;99.90;;;;;;5074421;28;20042;-81
2022/08/11 11:42:51;;;;;;;4.15;1.38;;;28.60;99.90;;;;;;5073984;28;20146;-82
2022/08/11 11:45:20;;;;;;;4.63;1.20;;;28.60;99.90;;;;;;5057495;28;20131;-83
2022/08/11 11:47:51;;;;;;;1.73;1.20;;;28.70;99.90;;;;;;5056930;28;20135;-82
2022/08/11 11:50:33;;;;;;;2.00;1.40;;;26.40;99.90;;;;;;5057294;28;20051;-82
2022/08/11 11:53:02;;;;;;;2.20;1.55;;;29.40;99.90;;;;;;5073697;28;20060;-83
2022/08/11 11:55:29;;;;;;;3.83;1.38;;;28.20;99.90;;;;;;5074035;28;20058;-83
2022/08/11 12:03:31;;;;;;;1.63;1.52;;;29.10;99.90;;;;;;5073873;28;20040;-81
2022/08/11 12:05:57;;;;;;;2.75;1.55;;;29.30;99.90;;;;;;5057113;28;20079;-82
2022/08/11 12:08:24;;;;;;;2.25;1.60;;;29.10;99.90;;;;;;5073597;28;20054;-81
2022/08/11 12:13:46;;;;;;;7.15;1.42;;;29.50;99.90;;;;;;5073725;28;20048;-81
2022/08/11 12:16:14;;;;;;;1.40;1.25;;;29.50;99.90;;;;;;5056818;28;20050;-82
2022/08/11 12:18:44;;;;;;;2.88;1.50;;;29.60;99.90;;;;;;5073569;28;20404;-82
2022/08/11 12:21:10;;;;;;;3.50;1.38;;;29.50;99.90;;;;;;5073672;28;20048;-82
2022/08/11 12:27:19;;;;;;;3.55;1.50;;;29.50;99.90;;;;;;5073640;28;20131;-83
2022/08/11 12:29:26;;;;;;;2.53;1.42;;;29.80;99.90;;;;;;5073838;28;20113;-82
2022/08/11 12:31:54;;;;;;;5.43;1.45;;;29.70;99.90;;;;;;5073663;28;20071;-82
2022/08/11 12:34:20;;;;;;;1.98;1.60;;;29.70;99.90;;;;;;5056595;28;20478;-82
2022/08/11 12:37:04;;;;;;;2.95;1.90;;;29.90;99.90;;;;;;5056860;28;20130;-82
2022/08/11 12:45:26;;;;;;;2.35;1.92;;;30.00;99.90;;;;;;5073261;28;20056;-82
2022/08/11 12:45:26;;;;;;;2.13;1.45;;;30.10;99.90;;;;;;5073803;28;20377;-83
2022/08/11 12:53:39;;;;;;;3.45;1.65;;;30.30;99.90;;;;;;5076806;28;20052;-80
2022/08/11 12:58:51;;;;;;;2.13;1.35;;;30.20;99.90;;;;;;5077008;28;20044;-79
2022/08/11 13:06:50;;;;;;;2.75;1.50;;;30.60;99.90;;;;;;5077037;28;20052;-81
2022/08/11 13:09:17;;;;;;;1.70;1.20;;;30.40;99.90;;;;;;5076840;28;20131;-81
2022/08/11 13:14:31;;;;;;;4.53;1.40;;;31.00;99.90;;;;;;5077214;28;20412;-80
2022/08/11 13:19:44;;;;;;;2.47;1.25;;;30.30;99.90;;;;;;5077181;28;20044;-81
2022/08/11 13:22:10;;;;;;;1.63;1.35;;;30.70;99.90;;;;;;5077424;28;20051;-81
2022/08/11 13:24:38;;;;;;;5.53;1.50;;;30.60;99.90;;;;;;5061028;28;20408;-81
2022/08/11 13:27:04;;;;;;;3.60;1.30;;;30.80;99.90;;;;;;5061209;28;20443;-81
2022/08/11 13:29:30;;;;;;;3.13;1.63;;;30.60;99.90;;;;;;5077919;28;20047;-80
2022/08/11 13:31:58;;;;;;;2.45;1.40;;;31.10;99.90;;;;;;5060364;28;20499;-81
2022/08/11 13:34:26;;;;;;;4.95;0.98;;;31.20;99.90;;;;;;5060030;28;20616;-81
2022/08/11 13:36:58;;;;;;;20.60;4.00;;;31.00;99.90;;;;;;5060534;28;20385;-81
2022/08/11 13:39:28;;;;;;;1.85;1.10;;;30.90;99.90;;;;;;5076303;28;20040;-81
2022/08/11 13:41:56;;;;;;;5.50;1.40;;;31.00;99.90;;;;;;5076498;28;20189;-81
2022/08/11 13:44:23;;;;;;;3.10;1.52;;;30.90;99.90;;;;;;5059457;28;20036;-81
2022/08/11 13:46:50;;;;;;;1.73;1.00;;;31.20;99.90;;;;;;5076502;28;20052;-81
2022/08/11 13:49:17;;;;;;;3.53;1.55;;;30.90;99.90;;;;;;5076020;28;20052;-81
2022/08/11 13:51:43;;;;;;;1.65;1.13;;;31.10;99.90;;;;;;5059208;28;20051;-81
2022/08/11 13:54:17;;;;;;;5.63;1.15;;;31.10;99.90;;;;;;5059461;28;20142;-80
2022/08/11 13:56:45;;;;;;;3.45;1.35;;;31.60;99.90;;;;;;5060698;28;20079;-83
2022/08/11 13:59:13;;;;;;;2.47;1.10;;;31.00;99.90;;;;;;5061357;28;20082;-86
2022/08/11 14:01:47;;;;;;;3.92;1.27;;;31.20;99.90;;;;;;5061038;28;20048;-83
2022/08/11 14:04:32;;;;;;;1.70;1.52;;;31.30;99.90;;;;;;5077965;28;20047;-87
2022/08/11 14:07:02;;;;;;;5.90;1.10;;;31.20;99.90;;;;;;5060726;28;20051;-85
2022/08/11 14:09:33;;;;;;;6.63;3.67;;;31.40;99.90;;;;;;5061167;28;20048;-88
2022/08/11 14:14:50;;;;;;;4.68;2.03;;;31.20;99.90;;;;;;5075996;28;20519;-87
2022/08/11 14:17:17;;;;;;;6.65;1.95;;;31.30;99.90;;;;;;5075927;28;20048;-87
2022/08/11 14:19:49;;;;;;;2.17;1.02;;;31.10;99.90;;;;;;5059290;28;20040;-83
2022/08/11 14:22:16;;;;;;;2.47;1.30;;;31.30;99.90;;;;;;5058947;28;20048;-84
2022/08/11 14:24:48;;;;;;;4.20;1.45;;;31.40;99.90;;;;;;5059258;28;20044;-82
2022/08/11 14:27:15;;;;;;;5.28;1.40;;;31.70;99.90;;;;;;5092594;28;20488;-81
2022/08/11 14:29:42;;;;;;;1.52;1.17;;;31.40;99.90;;;;;;5058780;28;20036;-85
2022/08/11 14:32:11;;;;;;;8.15;1.55;;;31.60;99.90;;;;;;5075419;28;20047;-82
2022/08/11 14:34:40;;;;;;;2.28;1.05;;;31.50;99.90;;;;;;5075196;28;20051;-80
2022/08/11 14:37:12;;;;;;;4.40;1.20;;;31.60;99.90;;;;;;5058321;28;20044;-81
2022/08/11 14:39:53;;;;;;;1.77;1.05;;;31.70;99.90;;;;;;5058433;28;20044;-81
2022/08/11 14:48:00;;;;;;;2.83;1.50;;;31.50;99.90;;;;;;5071107;28;20507;-80
2022/08/11 14:50:28;;;;;;;5.18;1.40;;;31.40;99.90;;;;;;5057358;28;20043;-80
2022/08/11 14:53:02;;;;;;;6.85;1.70;;;31.30;99.90;;;;;;5051586;28;20087;-81
2022/08/11 14:58:22;;;;;;;4.55;1.40;;;31.20;99.90;;;;;;5091334;28;20488;-81
2022/08/11 15:00:58;;;;;;;2.88;1.70;;;31.00;99.90;;;;;;5077987;28;20047;-81
2022/08/11 15:03:26;;;;;;;4.10;1.52;;;31.20;99.90;;;;;;5058014;28;20087;-81
2022/08/11 15:06:00;;;;;;;2.42;1.42;;;31.10;99.90;;;;;;5092790;28;20399;-81
2022/08/11 15:14:12;;;;;;;6.80;2.13;;;29.70;99.90;;;;;;5076792;28;20426;-80
2022/08/11 15:19:30;;;;;;;3.35;2.08;;;30.90;99.90;;;;;;5096469;28;20044;-80
2022/08/11 15:24:40;;;;;;;6.80;1.67;;;30.90;99.90;;;;;;5094539;28;20052;-79
2022/08/11 15:38:18;;;;;;;1.58;1.15;;;30.40;99.90;;;;;;5078988;28;20052;-79
2022/08/11 15:46:32;;;;;;;4.87;1.73;;;30.40;99.90;;;;;;5074112;28;20131;-79
2022/08/11 15:49:02;;;;;;;1.40;1.17;;;30.20;99.90;;;;;;5061371;28;20059;-79
2022/08/11 15:51:38;;;;;;;4.10;1.58;;;30.30;99.90;;;;;;5073995;28;20039;-79
2022/08/11 15:54:12;;;;;;;5.47;2.10;;;30.20;99.90;;;;;;5057085;28;20405;-80
2022/08/11 15:56:42;;;;;;;12.02;3.08;;;30.20;99.90;;;;;;5096297;28;20377;-79
2022/08/11 16:04:38;;;;;;;3.03;1.77;;;29.90;99.90;;;;;;5112440;28;20126;-79
2022/08/11 16:07:06;;;;;;;1.48;1.23;;;30.10;99.90;;;;;;5102793;28;20047;-79
2022/08/11 16:09:32;;;;;;;8.00;2.08;;;29.90;99.90;;;;;;5082546;28;20733;-79
2022/08/11 16:12:02;;;;;;;2.60;1.40;;;29.80;99.90;;;;;;5091122;28;20118;-79
2022/08/11 16:17:19;;;;;;;5.97;1.45;;;29.60;99.90;;;;;;5074274;28;20481;-79
2022/08/11 16:19:49;;;;;;;16.17;2.20;;;29.70;99.90;;;;;;5074562;28;20101;-79
2022/08/11 16:22:27;;;;;;;3.28;1.45;;;29.50;99.90;;;;;;5088930;28;20047;-79
2022/08/11 16:24:55;;;;;;;2.00;1.35;;;29.70;99.90;;;;;;5095517;28;20133;-79
2022/08/11 16:27:26;;;;;;;4.95;1.90;;;28.10;99.90;;;;;;5098667;28;20047;-79
2022/08/11 16:29:54;;;;;;;2.78;1.13;;;29.70;99.90;;;;;;5098362;28;20046;-79
2022/08/11 16:32:22;;;;;;;4.13;1.63;;;28.90;99.90;;;;;;5095275;28;20113;-79
2022/08/11 16:40:28;;;;;;;3.47;1.55;;;29.30;99.90;;;;;;5115997;28;20047;-79
2022/08/11 16:48:31;;;;;;;5.90;1.65;;;29.00;99.90;;;;;;5115772;28;20040;-80
2022/08/11 16:50:59;;;;;;;2.35;1.50;;;29.20;99.90;;;;;;5097794;28;20047;-79
2022/08/11 16:53:28;;;;;;;1.63;1.10;;;28.90;99.90;;;;;;5113574;28;20104;-79
2022/08/11 16:55:56;;;;;;;4.30;1.65;;;28.80;99.90;;;;;;5115847;28;20307;-79
2022/08/11 17:01:10;;;;;;;3.67;1.60;;;28.80;99.90;;;;;;5097040;28;20051;-79
2022/08/11 17:14:57;;;;;;;5.43;1.45;;;28.50;99.90;;;;;;5077009;28;20047;-79
2022/08/11 17:17:41;;;;;;;4.78;1.80;;;28.80;99.90;;;;;;5096752;28;20087;-79
2022/08/11 17:20:11;;;;;;;7.90;1.33;;;28.60;99.90;;;;;;5079136;28;20043;-79
2022/08/11 17:25:27;;;;;;;1.63;1.52;;;28.20;99.90;;;;;;5096822;28;20217;-79
2022/08/11 17:27:54;;;;;;;2.65;1.50;;;28.10;99.90;;;;;;5079796;28;20043;-79
2022/08/11 17:30:20;;;;;;;3.53;1.80;;;28.20;99.90;;;;;;5095032;28;20381;-80
2022/08/11 17:35:38;;;;;;;4.90;1.70;;;28.00;99.90;;;;;;5092105;28;20061;-80
2022/08/11 17:38:16;;;;;;;5.78;1.65;;;28.00;99.90;;;;;;5077114;28;20489;-80
2022/08/11 17:49:10;;;;;;;4.03;2.08;;;27.90;99.90;;;;;;5086208;28;20511;-82
2022/08/11 17:59:55;;;;;;;4.63;1.50;;;27.50;99.90;;;;;;5112631;28;20101;-80
2022/08/11 18:05:11;;;;;;;6.47;2.15;;;27.40;99.90;;;;;;5113307;28;20161;-80
